createdAt,value
2022-08-25T00:01:27.025Z,20.54
2022-08-25T00:04:03.289Z,20.55
2022-08-25T00:06:35.361Z,20.57
2022-08-25T00:09:08.501Z,20.63
2022-08-25T00:11:44.093Z,20.67
2022-08-25T00:14:19.244Z,20.74
2022-08-25T00:16:51.620Z,20.79
2022-08-25T00:19:28.976Z,20.83
2022-08-25T00:22:01.565Z,20.87
2022-08-25T00:24:33.430Z,20.88
2022-08-25T00:27:06.025Z,20.90
2022-08-25T00:29:38.505Z,20.81
2022-08-25T00:32:12.096Z,20.72
2022-08-25T00:34:43.919Z,20.64
2022-08-25T00:37:16.410Z,20.58
2022-08-25T00:39:48.756Z,20.49
2022-08-25T00:42:22.179Z,20.47
2022-08-25T00:44:54.366Z,20.45
2022-08-25T00:47:26.564Z,20.44
2022-08-25T00:50:02.670Z,20.42
2022-08-25T00:52:44.567Z,20.39
2022-08-25T00:55:20.000Z,20.39
2022-08-25T00:57:58.809Z,20.35
2022-08-25T01:00:34.913Z,20.34
2022-08-25T01:03:11.268Z,20.33
2022-08-25T01:05:44.752Z,20.31
2022-08-25T01:08:22.089Z,20.30
2022-08-25T01:10:54.279Z,20.24
2022-08-25T01:13:33.611Z,20.19
2022-08-25T01:16:06.324Z,20.15
2022-08-25T01:18:51.419Z,20.09
2022-08-25T01:21:27.250Z,20.04
2022-08-25T01:24:01.632Z,20.00
2022-08-25T01:26:35.868Z,19.99
2022-08-25T01:29:22.690Z,19.97
2022-08-25T01:31:58.046Z,19.93
2022-08-25T01:34:36.115Z,19.91
2022-08-25T01:37:08.300Z,19.92
2022-08-25T01:39:45.057Z,19.96
2022-08-25T01:42:25.642Z,20.07
2022-08-25T01:44:59.614Z,20.18
2022-08-25T01:47:32.063Z,20.26
2022-08-25T01:50:04.075Z,20.31
2022-08-25T01:52:39.031Z,20.37
2022-08-25T01:55:12.496Z,20.38
2022-08-25T01:57:44.510Z,20.30
2022-08-25T02:00:25.676Z,20.21
2022-08-25T02:02:57.628Z,20.13
2022-08-25T02:05:29.578Z,20.11
2022-08-25T02:08:05.150Z,20.15
2022-08-25T02:10:40.575Z,20.16
2022-08-25T02:13:12.953Z,20.12
2022-08-25T02:15:52.048Z,20.10
2022-08-25T02:18:24.121Z,20.08
2022-08-25T02:20:58.614Z,20.03
2022-08-25T02:23:30.569Z,20.00
2022-08-25T02:26:02.524Z,20.00
2022-08-25T02:28:34.467Z,19.97
2022-08-25T02:31:10.415Z,19.94
2022-08-25T02:33:42.421Z,19.92
2022-08-25T02:36:14.567Z,19.93
2022-08-25T02:38:46.644Z,19.94
2022-08-25T02:41:27.785Z,19.93
2022-08-25T02:44:05.052Z,19.91
2022-08-25T02:46:37.884Z,19.95
2022-08-25T02:49:09.828Z,19.97
2022-08-25T02:51:43.305Z,19.98
2022-08-25T02:54:15.056Z,19.95
2022-08-25T02:56:47.823Z,19.96
2022-08-25T02:59:19.954Z,19.99
2022-08-25T03:01:54.349Z,19.98
2022-08-25T03:04:26.272Z,20.00
2022-08-25T03:06:58.226Z,19.97
2022-08-25T03:09:30.451Z,19.96
2022-08-25T03:12:09.454Z,19.91
2022-08-25T03:14:42.130Z,19.92
2022-08-25T03:17:15.242Z,19.97
2022-08-25T03:19:47.144Z,20.00
2022-08-25T03:22:21.554Z,20.00
2022-08-25T03:25:13.362Z,20.01
2022-08-25T03:27:45.324Z,20.01
2022-08-25T03:30:17.688Z,19.99
2022-08-25T03:32:51.447Z,19.96
2022-08-25T03:35:23.612Z,19.94
2022-08-25T03:37:58.515Z,19.94
2022-08-25T03:40:30.586Z,19.93
2022-08-25T03:43:09.977Z,19.98
2022-08-25T03:45:45.156Z,20.03
2022-08-25T03:48:18.135Z,20.05
2022-08-25T03:50:54.509Z,20.03
2022-08-25T03:53:27.123Z,20.02
2022-08-25T03:55:59.008Z,20.02
2022-08-25T03:58:30.849Z,20.03
2022-08-25T04:01:02.735Z,20.06
2022-08-25T04:03:35.528Z,20.06
2022-08-25T04:06:10.386Z,20.01
2022-08-25T04:08:42.546Z,19.97
2022-08-25T04:11:18.026Z,19.95
2022-08-25T04:13:51.310Z,19.92
2022-08-25T04:16:25.418Z,19.88
2022-08-25T04:18:58.750Z,19.91
2022-08-25T04:21:31.539Z,19.96
2022-08-25T04:24:04.369Z,19.97
2022-08-25T04:26:38.395Z,20.00
2022-08-25T04:29:12.038Z,20.03
2022-08-25T04:31:47.028Z,20.05
2022-08-25T04:34:29.741Z,20.04
2022-08-25T04:37:06.429Z,20.01
2022-08-25T04:39:38.358Z,19.98
2022-08-25T04:42:10.512Z,19.98
2022-08-25T04:44:43.378Z,20.02
2022-08-25T04:47:15.181Z,20.02
2022-08-25T04:49:47.529Z,20.07
2022-08-25T04:52:19.641Z,20.12
2022-08-25T04:54:51.548Z,20.16
2022-08-25T04:57:23.436Z,20.19
2022-08-25T04:59:55.780Z,20.20
2022-08-25T05:02:28.052Z,20.25
2022-08-25T05:05:00.937Z,20.25
2022-08-25T05:07:32.841Z,20.23
2022-08-25T05:10:05.073Z,20.20
2022-08-25T05:12:36.885Z,20.14
2022-08-25T05:15:25.621Z,20.13
2022-08-25T05:17:57.854Z,20.14
2022-08-25T05:20:32.799Z,20.19
2022-08-25T05:23:04.756Z,20.22
2022-08-25T05:25:38.078Z,20.24
2022-08-25T05:28:10.096Z,20.25
2022-08-25T05:30:46.224Z,20.25
2022-08-25T05:33:18.549Z,20.27
2022-08-25T05:35:50.511Z,20.31
2022-08-25T05:38:23.215Z,20.34
2022-08-25T05:41:01.852Z,20.41
2022-08-25T05:43:34.702Z,20.59
2022-08-25T05:46:07.507Z,20.75
2022-08-25T05:48:40.161Z,20.83
2022-08-25T05:51:13.426Z,20.91
2022-08-25T05:53:47.360Z,20.95
2022-08-25T05:56:19.939Z,20.97
2022-08-25T05:58:52.089Z,20.99
2022-08-25T06:01:47.258Z,21.01
2022-08-25T06:04:21.059Z,21.05
2022-08-25T06:06:55.041Z,21.03
2022-08-25T06:09:27.106Z,21.00
2022-08-25T06:12:01.299Z,21.01
2022-08-25T06:14:33.711Z,21.01
2022-08-25T06:17:05.921Z,21.01
2022-08-25T06:19:38.176Z,21.04
2022-08-25T06:22:13.288Z,21.13
2022-08-25T06:24:45.219Z,21.16
2022-08-25T06:27:17.761Z,21.16
2022-08-25T06:29:50.010Z,21.13
2022-08-25T06:32:27.051Z,21.17
2022-08-25T06:34:59.183Z,21.16
2022-08-25T06:37:32.090Z,21.20
2022-08-25T06:40:05.286Z,21.32
2022-08-25T06:42:39.757Z,21.54
2022-08-25T06:45:13.101Z,21.84
2022-08-25T06:47:46.635Z,22.21
2022-08-25T06:50:18.578Z,22.29
2022-08-25T06:52:51.892Z,22.34
2022-08-25T06:55:23.960Z,22.58
2022-08-25T06:57:56.707Z,22.74
2022-08-25T07:00:30.636Z,22.84
2022-08-25T07:03:05.069Z,22.96
2022-08-25T07:05:43.811Z,23.11
2022-08-25T07:08:16.083Z,23.25
2022-08-25T07:10:48.474Z,23.18
2022-08-25T07:13:21.239Z,23.20
2022-08-25T07:15:56.346Z,23.32
2022-08-25T07:18:28.340Z,23.32
2022-08-25T07:21:00.484Z,23.32
2022-08-25T07:23:32.429Z,23.44
2022-08-25T07:26:36.321Z,23.58
2022-08-25T07:29:08.649Z,23.65
2022-08-25T07:31:40.894Z,23.79
2022-08-25T07:34:31.399Z,23.79
2022-08-25T07:37:05.169Z,23.96
2022-08-25T07:39:37.478Z,24.08
2022-08-25T07:42:12.251Z,24.09
2022-08-25T07:44:44.247Z,24.15
2022-08-25T07:47:16.924Z,24.15
2022-08-25T07:49:55.153Z,24.12
2022-08-25T07:52:27.096Z,24.25
2022-08-25T07:54:58.938Z,24.31
2022-08-25T07:57:31.142Z,24.35
2022-08-25T08:00:03.168Z,24.44
2022-08-25T08:02:40.565Z,24.52
2022-08-25T08:05:15.087Z,24.56
2022-08-25T08:07:47.080Z,24.63
2022-08-25T08:13:18.635Z,24.65
2022-08-25T08:15:51.131Z,24.65
2022-08-25T08:18:24.556Z,24.60
2022-08-25T08:20:58.388Z,24.61
2022-08-25T08:23:31.507Z,24.63
2022-08-25T08:26:03.557Z,24.50
2022-08-25T08:28:36.356Z,24.50
2022-08-25T08:31:10.569Z,24.65
2022-08-25T08:33:42.784Z,24.95
2022-08-25T08:36:15.159Z,25.25
2022-08-25T08:38:47.914Z,25.40
2022-08-25T08:42:17.263Z,25.33
2022-08-25T08:45:17.429Z,25.13
2022-08-25T08:48:02.028Z,24.96
2022-08-25T08:50:45.670Z,25.01
2022-08-25T08:53:25.999Z,25.12
2022-08-25T08:56:02.408Z,25.11
2022-08-25T08:58:44.030Z,25.01
2022-08-25T09:01:20.369Z,25.02
2022-08-25T09:03:59.141Z,25.03
2022-08-25T09:06:39.156Z,25.11
2022-08-25T09:09:13.362Z,25.30
2022-08-25T09:12:01.049Z,25.30
2022-08-25T09:14:46.992Z,25.18
2022-08-25T09:17:42.994Z,25.12
2022-08-25T09:20:54.477Z,25.17
2022-08-25T09:23:41.102Z,25.26
2022-08-25T09:26:27.464Z,25.35
2022-08-25T09:29:07.443Z,25.27
2022-08-25T09:31:51.827Z,25.29
2022-08-25T09:34:27.350Z,25.44
2022-08-25T09:37:08.478Z,25.55
2022-08-25T09:39:42.143Z,25.67
2022-08-25T09:42:14.032Z,25.80
2022-08-25T09:44:48.435Z,25.99
2022-08-25T09:47:23.391Z,26.04
2022-08-25T09:50:01.103Z,25.95
2022-08-25T09:52:38.546Z,26.18
2022-08-25T09:55:24.527Z,26.30
2022-08-25T09:57:58.455Z,26.51
2022-08-25T10:00:33.710Z,26.62
2022-08-25T10:03:15.904Z,26.74
2022-08-25T10:06:05.763Z,26.91
2022-08-25T10:08:40.384Z,26.83
2022-08-25T10:11:15.443Z,26.64
2022-08-25T10:13:51.489Z,26.57
2022-08-25T10:16:33.621Z,26.66
2022-08-25T10:19:11.207Z,26.63
2022-08-25T10:21:44.859Z,26.57
2022-08-25T10:24:17.055Z,26.74
2022-08-25T10:27:02.293Z,26.89
2022-08-25T10:29:50.828Z,26.84
2022-08-25T10:32:35.128Z,26.82
2022-08-25T10:35:13.327Z,26.80
2022-08-25T10:37:58.285Z,26.72
2022-08-25T10:40:43.794Z,26.63
2022-08-25T10:43:26.523Z,26.58
2022-08-25T10:46:12.275Z,26.69
2022-08-25T10:48:59.368Z,27.04
2022-08-25T10:51:51.101Z,27.46
2022-08-25T10:54:39.999Z,27.72
2022-08-25T10:57:22.514Z,27.77
2022-08-25T11:00:10.361Z,27.66
2022-08-25T11:03:01.360Z,27.76
2022-08-25T11:05:37.479Z,27.88
2022-08-25T11:08:15.626Z,28.03
2022-08-25T11:10:53.085Z,28.14
2022-08-25T11:13:34.297Z,28.17
2022-08-25T11:16:17.527Z,28.28
2022-08-25T11:18:57.440Z,28.55
2022-08-25T11:21:39.937Z,28.76
2022-08-25T11:24:32.175Z,29.00
2022-08-25T11:27:15.899Z,29.10
2022-08-25T11:30:00.096Z,29.08
2022-08-25T11:32:36.052Z,28.99
2022-08-25T11:35:13.514Z,28.92
2022-08-25T11:37:58.868Z,28.76
2022-08-25T11:40:51.377Z,28.62
2022-08-25T11:43:40.972Z,28.55
2022-08-25T11:46:27.848Z,28.41
2022-08-25T11:49:31.744Z,28.50
2022-08-25T11:52:04.498Z,28.45
2022-08-25T11:54:43.938Z,28.28
2022-08-25T11:58:40.618Z,28.29
2022-08-25T12:01:53.488Z,28.63
2022-08-25T12:04:44.813Z,28.90
2022-08-25T12:08:12.531Z,28.99
2022-08-25T12:11:16.084Z,28.73
2022-08-25T12:13:50.834Z,28.54
2022-08-25T12:16:44.520Z,28.43
2022-08-25T12:19:49.689Z,28.34
2022-08-25T12:22:55.437Z,28.39
2022-08-25T12:25:52.052Z,28.54
2022-08-25T12:28:47.229Z,28.69
2022-08-25T12:31:48.684Z,28.62
2022-08-25T12:38:52.045Z,28.32
2022-08-25T12:45:45.423Z,28.60
2022-08-25T12:48:43.440Z,28.97
2022-08-25T12:51:21.499Z,29.11
2022-08-25T12:53:58.494Z,29.16
2022-08-25T12:56:47.692Z,29.21
2022-08-25T12:59:24.037Z,29.24
2022-08-25T13:02:23.398Z,29.16
2022-08-25T13:05:28.298Z,29.25
2022-08-25T13:08:37.515Z,29.36
2022-08-25T13:11:23.131Z,29.08
2022-08-25T13:14:00.480Z,28.90
2022-08-25T13:16:33.955Z,28.97
2022-08-25T13:19:19.365Z,29.09
2022-08-25T13:21:54.610Z,29.13
2022-08-25T13:24:29.768Z,29.09
2022-08-25T13:27:04.493Z,29.16
2022-08-25T13:29:40.881Z,29.05
2022-08-25T13:32:17.635Z,29.03
2022-08-25T13:34:52.595Z,28.95
2022-08-25T13:37:31.337Z,28.84
2022-08-25T13:40:18.011Z,28.76
2022-08-25T13:42:56.085Z,28.74
2022-08-25T13:45:32.527Z,28.69
2022-08-25T13:48:22.628Z,28.70
2022-08-25T13:51:07.432Z,28.71
2022-08-25T13:53:41.747Z,28.73
2022-08-25T13:56:24.030Z,28.72
2022-08-25T13:59:00.273Z,28.69
2022-08-25T14:01:48.803Z,28.78
2022-08-25T14:04:29.641Z,28.94
2022-08-25T14:07:19.570Z,29.09
2022-08-25T14:09:55.154Z,29.04
2022-08-25T14:12:44.784Z,28.98
2022-08-25T14:15:33.397Z,29.03
2022-08-25T14:18:08.896Z,29.03
2022-08-25T14:20:50.541Z,28.94
2022-08-25T14:23:26.672Z,28.84
2022-08-25T14:26:03.633Z,28.60
2022-08-25T14:28:43.452Z,28.41
2022-08-25T14:31:20.092Z,28.21
2022-08-25T14:33:56.525Z,28.11
2022-08-25T14:36:30.290Z,28.11
2022-08-25T14:39:05.994Z,28.10
2022-08-25T14:41:47.362Z,28.24
2022-08-25T14:44:25.317Z,28.44
2022-08-25T14:46:59.875Z,28.60
2022-08-25T14:49:34.884Z,28.85
2022-08-25T14:52:12.285Z,29.07
2022-08-25T14:54:44.958Z,29.31
2022-08-25T14:57:18.405Z,29.50
2022-08-25T14:59:50.414Z,29.35
2022-08-25T15:02:29.643Z,29.26
2022-08-25T15:05:05.989Z,29.12
2022-08-25T15:07:55.670Z,28.93
2022-08-25T15:10:27.668Z,28.77
2022-08-25T15:12:59.670Z,28.68
2022-08-25T15:15:33.042Z,28.55
2022-08-25T15:18:05.707Z,28.48
2022-08-25T15:20:38.207Z,28.40
2022-08-25T15:23:10.853Z,28.32
2022-08-25T15:25:52.996Z,28.21
2022-08-25T15:28:26.627Z,28.16
2022-08-25T15:30:58.480Z,28.15
2022-08-25T15:33:31.228Z,28.19
2022-08-25T15:36:03.321Z,28.20
2022-08-25T15:38:35.154Z,28.22
2022-08-25T15:41:08.421Z,28.24
2022-08-25T15:43:43.286Z,28.30
2022-08-25T15:46:20.260Z,28.35
2022-08-25T15:48:52.388Z,28.36
2022-08-25T15:51:24.175Z,28.34
2022-08-25T15:53:55.963Z,28.31
2022-08-25T15:56:27.882Z,28.16
2022-08-25T15:58:59.847Z,28.03
2022-08-25T16:01:31.737Z,27.94
2022-08-25T16:04:03.717Z,27.86
2022-08-25T16:06:35.695Z,27.80
2022-08-25T16:09:08.706Z,27.73
2022-08-25T16:11:43.199Z,27.61
2022-08-25T16:14:15.245Z,27.53
2022-08-25T16:16:47.741Z,27.45
2022-08-25T16:19:19.661Z,27.38
2022-08-25T16:21:51.482Z,27.30
2022-08-25T16:24:23.330Z,27.22
2022-08-25T16:27:00.325Z,27.16
2022-08-25T16:29:45.709Z,27.07
2022-08-25T16:32:19.247Z,27.04
2022-08-25T16:34:51.026Z,27.04
2022-08-25T16:37:23.128Z,27.02
2022-08-25T16:39:57.126Z,27.00
2022-08-25T16:42:30.018Z,26.97
2022-08-25T16:45:02.204Z,26.93
2022-08-25T16:47:40.018Z,26.90
2022-08-25T16:50:19.408Z,26.88
2022-08-25T16:53:09.950Z,26.86
2022-08-25T16:55:41.978Z,26.84
2022-08-25T16:58:16.527Z,26.83
2022-08-25T17:00:51.627Z,26.83
2022-08-25T17:03:27.088Z,26.82
2022-08-25T17:06:01.642Z,26.80
2022-08-25T17:08:33.911Z,26.78
2022-08-25T17:11:14.167Z,26.72
2022-08-25T17:13:49.727Z,26.68
2022-08-25T17:16:24.895Z,26.61
2022-08-25T17:18:57.611Z,26.53
2022-08-25T17:21:33.185Z,26.47
2022-08-25T17:24:06.655Z,26.40
2022-08-25T17:26:41.175Z,26.34
2022-08-25T17:29:13.340Z,26.27
2022-08-25T17:31:48.497Z,26.22
2022-08-25T17:34:23.253Z,26.17
2022-08-25T17:36:55.713Z,26.11
2022-08-25T17:39:28.633Z,26.04
2022-08-25T17:42:02.664Z,25.97
2022-08-25T17:44:34.528Z,25.91
2022-08-25T17:47:10.147Z,25.85
2022-08-25T17:49:42.059Z,25.82
2022-08-25T17:52:15.687Z,25.77
2022-08-25T17:54:47.564Z,25.70
2022-08-25T17:57:20.593Z,25.64
2022-08-25T17:59:55.225Z,25.58
2022-08-25T18:02:28.330Z,25.51
2022-08-25T18:05:00.794Z,25.44
2022-08-25T18:07:32.839Z,25.37
2022-08-25T18:10:05.611Z,25.31
2022-08-25T18:12:41.178Z,25.25
2022-08-25T18:15:16.010Z,25.20
2022-08-25T18:17:48.216Z,25.15
2022-08-25T18:20:21.771Z,25.11
2022-08-25T18:22:55.485Z,25.09
2022-08-25T18:25:30.968Z,25.06
2022-08-25T18:28:03.237Z,25.04
2022-08-25T18:30:35.232Z,25.01
2022-08-25T18:33:08.198Z,24.99
2022-08-25T18:35:40.488Z,24.98
2022-08-25T18:38:31.129Z,24.94
2022-08-25T18:41:06.444Z,24.90
2022-08-25T18:43:38.804Z,24.85
2022-08-25T18:46:12.163Z,24.81
2022-08-25T18:48:45.885Z,24.78
2022-08-25T18:51:18.345Z,24.76
2022-08-25T18:54:00.902Z,24.73
2022-08-25T18:56:34.678Z,24.69
2022-08-25T18:59:09.189Z,24.65
2022-08-25T19:01:44.854Z,24.59
2022-08-25T19:04:17.546Z,24.56
2022-08-25T19:06:49.428Z,24.54
2022-08-25T19:09:23.836Z,24.50
2022-08-25T19:11:55.836Z,24.44
2022-08-25T19:14:27.927Z,24.37
2022-08-25T19:17:01.029Z,24.31
2022-08-25T19:19:33.208Z,24.27
2022-08-25T19:22:08.509Z,24.25
2022-08-25T19:24:49.136Z,24.23
2022-08-25T19:27:21.694Z,24.19
2022-08-25T19:29:54.029Z,24.14
2022-08-25T19:32:26.509Z,24.11
2022-08-25T19:35:00.485Z,24.08
2022-08-25T19:37:32.683Z,24.05
2022-08-25T19:40:11.732Z,24.01
2022-08-25T19:42:43.858Z,23.94
2022-08-25T19:45:16.769Z,23.90
2022-08-25T19:47:49.530Z,23.88
2022-08-25T19:50:25.844Z,23.84
2022-08-25T19:52:58.213Z,23.81
2022-08-25T19:55:30.291Z,23.77
2022-08-25T19:58:03.055Z,23.74
2022-08-25T20:00:40.545Z,23.70
2022-08-25T20:03:12.787Z,23.69
2022-08-25T20:05:45.096Z,23.69
2022-08-25T20:08:17.838Z,23.68
2022-08-25T20:11:02.887Z,23.66
2022-08-25T20:13:34.693Z,23.61
2022-08-25T20:16:07.825Z,23.54
2022-08-25T20:18:39.977Z,23.48
2022-08-25T20:21:12.959Z,23.46
2022-08-25T20:24:02.841Z,23.43
2022-08-25T20:26:35.019Z,23.39
2022-08-25T20:29:06.960Z,23.35
2022-08-25T20:31:39.884Z,23.32
2022-08-25T20:34:11.796Z,23.27
2022-08-25T20:36:50.251Z,23.22
2022-08-25T20:39:22.925Z,23.20
2022-08-25T20:41:54.955Z,23.22
2022-08-25T20:44:33.684Z,23.24
2022-08-25T20:47:10.291Z,23.22
2022-08-25T20:49:43.832Z,23.18
2022-08-25T20:52:16.889Z,23.15
2022-08-25T20:54:51.047Z,23.10
2022-08-25T20:57:26.178Z,23.00
2022-08-25T21:00:00.195Z,22.90
2022-08-25T21:02:33.079Z,22.88
2022-08-25T21:05:09.026Z,22.90
2022-08-25T21:07:41.558Z,22.95
2022-08-25T21:10:15.504Z,22.97
2022-08-25T21:12:53.284Z,22.99
2022-08-25T21:15:25.474Z,22.99
2022-08-25T21:17:57.695Z,22.96
2022-08-25T21:20:29.600Z,22.93
2022-08-25T21:23:03.172Z,22.90
2022-08-25T21:25:42.710Z,22.89
2022-08-25T21:28:15.121Z,22.92
2022-08-25T21:30:47.422Z,22.93
2022-08-25T21:33:19.420Z,22.93
2022-08-25T21:35:58.080Z,22.85
2022-08-25T21:38:30.331Z,22.74
2022-08-25T21:41:08.557Z,22.69
2022-08-25T21:43:41.523Z,22.68
2022-08-25T21:46:20.263Z,22.66
2022-08-25T21:48:53.096Z,22.68
2022-08-25T21:51:27.191Z,22.68
2022-08-25T21:54:11.140Z,22.69
2022-08-25T21:56:47.857Z,22.71
2022-08-25T21:59:22.378Z,22.70
2022-08-25T22:01:57.478Z,22.65
2022-08-25T22:04:31.219Z,22.57
2022-08-25T22:07:03.411Z,22.55
2022-08-25T22:09:35.586Z,22.57
2022-08-25T22:12:10.158Z,22.58
2022-08-25T22:14:42.849Z,22.54
2022-08-25T22:17:17.056Z,22.47
2022-08-25T22:19:53.769Z,22.44
2022-08-25T22:22:25.981Z,22.42
2022-08-25T22:24:58.776Z,22.35
2022-08-25T22:27:31.858Z,22.31
2022-08-25T22:30:11.466Z,22.30
2022-08-25T22:32:45.383Z,22.29
2022-08-25T22:35:17.525Z,22.30
2022-08-25T22:37:51.483Z,22.28
2022-08-25T22:40:30.108Z,22.23
2022-08-25T22:43:01.932Z,22.22
2022-08-25T22:45:34.061Z,22.24
2022-08-25T22:48:07.326Z,22.22
2022-08-25T22:50:43.157Z,22.17
2022-08-25T22:53:18.565Z,22.13
2022-08-25T22:55:52.162Z,22.12
2022-08-25T22:58:31.026Z,22.10
2022-08-25T23:01:05.153Z,22.07
2022-08-25T23:03:37.068Z,22.06
2022-08-25T23:06:25.023Z,22.08
2022-08-25T23:08:58.597Z,22.07
2022-08-25T23:11:31.373Z,22.09
2022-08-25T23:14:05.679Z,22.12
2022-08-25T23:16:38.044Z,22.12
2022-08-25T23:19:10.635Z,22.10
2022-08-25T23:22:00.964Z,22.07
2022-08-25T23:24:33.460Z,22.07
2022-08-25T23:27:08.616Z,22.08
2022-08-25T23:29:42.906Z,22.09
2022-08-25T23:32:17.515Z,22.07
2022-08-25T23:34:50.170Z,22.09
2022-08-25T23:37:21.980Z,22.12
2022-08-25T23:39:54.409Z,22.14
2022-08-25T23:42:27.329Z,22.16
2022-08-25T23:44:59.120Z,22.18
2022-08-25T23:47:31.084Z,22.18
2022-08-25T23:50:03.088Z,22.15
2022-08-25T23:52:37.590Z,22.14
2022-08-25T23:55:11.660Z,22.15
2022-08-25T23:57:43.574Z,22.15
